Terminal Aerodrome Forecast
Issued by NWS

Home | Current Version | Previous Version | Text Only | Print | Product List | Glossary On
Versions: 1 2 3 4 5 6 7 8 9 10 11 12 13 14 15 16 17 18 19 20 21 22 23 24 25
000
FTUS45 KSLC 301735
TAFENV
TAF
KENV 301735Z 3018/3118 31009KT P6SM SCT100 BKN150
     FM302000 27015G23KT P6SM SCT090 BKN120
     FM310200 30012G19KT P6SM SCT090 SCT120
     FM310600 32008KT P6SM SCT120
      AMD LTD TO CLD VIS AND WIND=

USA.gov is the U.S. government's official web portal to all federal, state and local government web resources and services.